Airfield :
LOGIN :

Register | Disclaimer

   EN    FR    IT 

 










Legend :    VFR   Marginal VFR   IFR   Intensive IFR   Very Intensive IFR
Visi :
Ceiling :
>= 8 km
>= 3000ft
5 to 8 km
1000 to 3000 ft
1500m to 5 km
500 to 1000 ft
800 to 1500m
200 to 500 ft
< 800m
< 200 ft
Symbols :   Thunderstorms  Fog  Heavy snow  Heavy precipitations  Wind > 20 kt
SIGMETs :     Misc.  Thunderstorms  Icing  Turbulence  Mountain Waves  Volcanic Ashes






- Airport Elevation : 3006 ft
- IATA code : LEN


LELN - Leon

CURRENT METAR :
  • 050200Z AUTO 26004KT CAVOK 13/10 Q1019

EXPIRED METARs :
  • 050130Z AUTO 26007KT CAVOK 14/10 Q1019
  • 050100Z AUTO 27005KT 230V310 9000 NCD 14/10 Q1019
  • 050030Z AUTO 27005KT CAVOK 12/09 Q1019
  • 050000Z AUTO 27004KT 240V300 CAVOK 14/09 Q1020
  • 042330Z AUTO 27007KT 9000 NCD 16/10 Q1020

TAF TAF LELN
Valid from the 04 at 21:00 until the 05 at 21:00 UTC


042000Z 0421/0521 28011KT CAVOK TX27/0515Z TN11/0505Z
BECMG 0421/0423 VRB05KT
BECMG 0507/0509 27010KT
PROB40
TEMPO 0511/0520 27015G30KT



MET'MAP, your aeronautical weather chart ! - Copyright ORBIFLY December 2007 - Disclaimer

ORBIFLY MET'MAP TEAM :

Programming & Development : Alexandra Zaïnal
Concept & original design : Baudouin d'Aumeries
Assistance for programming : Marc-Olivier Méhu
Technical & hardware support : Manuel Goepfert

Contact : metmap@orbifly.com




SOURCES & CREDITS :

   NOAA